Ordot, Guam
Current Conditions -  °F | °C
As of 2:54 AM on Saturday 25 Oct 2014 (Local Time) from PGUM Reporting Station
Clear Clear  
Wind Chill: 81°   Ceiling: Unl
Heat Index: 87°   Visibility: 10mi
Dew Point: 76°   Wind: 5mph
Humidity: 85%   Direction: 120°ESE
Pressure: 29.87"   Gusts: NA
Location:  13.4744°N, 144.7478°E
Report Text: PGUM 241654Z 12004KT 10SM CLR 27/24 A2987 RMK AO2 SLP107 T02720244 $
Loading
Personal Weather Stations






























Interactive Weather Map New forecast layout! Learn more

10-Day Weather Forecast

Advertisements
Track Severe Weather on mobile